Terminal Aerodrome Forecast
Issued by NWS

Home | Current Version | Previous Version | Text Only | Print | Product List | Glossary On
Versions: 1 2 3 4 5 6 7 8 9 10 11 12 13 14 15 16 17 18 19 20 21 22 23 24 25 26 27 28 29 30 31 32 33 34
000
FTUS44 KLIX 212222 AAA
TAFHUM
TAF AMD
KHUM 212222Z 2122/2218 20010KT P6SM BKN025
      TEMPO 2122/2124 22020G30KT 2SM +TSRA OVC025CB
     FM220100 19011KT P6SM VCTS BKN015CB
     FM220500 22010KT P6SM BKN035
     FM221400 25016KT P6SM SCT120 PROB30 2214/2218 4SM -SHRA BKN120=

USA.gov is the U.S. government's official web portal to all federal, state and local government web resources and services.